createdAt,value
2019-03-18T00:02:07.919Z,7.60
2019-03-18T00:05:31.710Z,7.50
2019-03-18T00:08:55.536Z,7.50
2019-03-18T00:12:19.483Z,7.50
2019-03-18T00:15:43.268Z,7.50
2019-03-18T00:19:07.045Z,7.50
2019-03-18T00:22:30.919Z,7.60
2019-03-18T00:25:55.043Z,7.60
2019-03-18T00:29:18.973Z,7.60
2019-03-18T00:32:42.901Z,7.60
2019-03-18T00:36:06.887Z,7.60
2019-03-18T00:39:30.847Z,7.60
2019-03-18T00:42:54.623Z,7.60
2019-03-18T00:46:18.544Z,7.60
2019-03-18T00:49:42.515Z,7.60
2019-03-18T00:53:06.278Z,7.60
2019-03-18T00:56:30.126Z,7.50
2019-03-18T00:59:54.050Z,7.50
2019-03-18T01:03:17.803Z,7.50
2019-03-18T01:06:41.688Z,7.40
2019-03-18T01:10:11.301Z,7.40
2019-03-18T01:13:35.076Z,7.30
2019-03-18T01:16:58.950Z,7.20
2019-03-18T01:20:22.708Z,7.00
2019-03-18T01:23:46.545Z,6.90
2019-03-18T01:27:10.430Z,6.80
2019-03-18T01:30:34.128Z,6.70
2019-03-18T01:33:58.667Z,6.70
2019-03-18T01:37:22.420Z,6.60
2019-03-18T01:40:46.203Z,6.50
2019-03-18T01:44:10.006Z,6.40
2019-03-18T01:47:33.921Z,6.40
2019-03-18T01:50:57.763Z,6.30
2019-03-18T01:54:21.502Z,6.20
2019-03-18T01:57:45.560Z,6.10
2019-03-18T02:01:09.340Z,6.00
2019-03-18T02:04:33.123Z,6.00
2019-03-18T02:07:57.105Z,5.80
2019-03-18T02:11:21.816Z,5.80
2019-03-18T02:14:45.574Z,5.60
2019-03-18T02:18:09.307Z,5.50
2019-03-18T02:21:33.143Z,5.40
2019-03-18T02:24:56.928Z,5.40
2019-03-18T02:28:20.958Z,5.30
2019-03-18T02:31:44.759Z,5.20
2019-03-18T02:35:08.619Z,5.20
2019-03-18T02:38:32.316Z,5.10
2019-03-18T02:41:56.315Z,5.10
2019-03-18T02:45:20.105Z,5.00
2019-03-18T02:48:44.051Z,4.90
2019-03-18T02:52:08.170Z,4.80
2019-03-18T02:55:31.953Z,4.80
2019-03-18T02:58:55.809Z,4.90
2019-03-18T03:02:19.500Z,4.70
2019-03-18T03:05:43.284Z,4.70
2019-03-18T03:09:07.792Z,4.70
2019-03-18T03:12:31.552Z,4.70
2019-03-18T03:15:55.431Z,4.70
2019-03-18T03:19:19.242Z,4.60
2019-03-18T03:22:43.022Z,4.70
2019-03-18T03:26:06.834Z,4.70
2019-03-18T03:29:30.587Z,4.70
2019-03-18T03:32:54.424Z,4.70
2019-03-18T03:36:18.267Z,4.70
2019-03-18T03:39:42.087Z,4.70
2019-03-18T03:43:05.751Z,4.70
2019-03-18T03:46:42.456Z,4.70
2019-03-18T03:49:54.870Z,4.70
2019-03-18T03:53:18.731Z,4.80
2019-03-18T03:56:42.618Z,4.80
2019-03-18T04:00:11.796Z,4.70
2019-03-18T04:03:38.505Z,4.70
2019-03-18T04:07:01.189Z,4.70
2019-03-18T04:10:25.108Z,4.70
2019-03-18T04:13:48.983Z,4.70
2019-03-18T04:17:12.881Z,4.80
2019-03-18T04:20:36.755Z,4.70
2019-03-18T04:24:00.671Z,4.70
2019-03-18T04:27:24.932Z,4.60
2019-03-18T04:30:48.884Z,4.50
2019-03-18T04:34:12.751Z,4.50
2019-03-18T04:37:36.619Z,4.50
2019-03-18T04:41:00.498Z,4.50
2019-03-18T04:44:24.303Z,4.50
2019-03-18T04:47:48.376Z,4.50
2019-03-18T04:51:12.755Z,4.60
2019-03-18T04:54:36.514Z,4.60
2019-03-18T04:58:00.424Z,4.50
2019-03-18T05:01:24.335Z,4.60
2019-03-18T05:04:48.016Z,4.60
2019-03-18T05:08:11.891Z,4.60
2019-03-18T05:11:35.571Z,4.60
2019-03-18T05:14:59.450Z,4.60
2019-03-18T05:18:23.196Z,4.60
2019-03-18T05:21:47.116Z,4.60
2019-03-18T05:25:11.065Z,4.60
2019-03-18T05:28:34.834Z,4.60
2019-03-18T05:31:58.559Z,4.50
2019-03-18T05:35:22.396Z,4.50
2019-03-18T05:38:46.203Z,4.50
2019-03-18T05:42:09.956Z,4.60
2019-03-18T05:45:33.838Z,4.60
2019-03-18T05:48:57.593Z,4.60
2019-03-18T05:52:21.471Z,4.60
2019-03-18T05:55:45.410Z,4.70
2019-03-18T05:59:09.279Z,4.70
2019-03-18T06:02:33.273Z,4.70
2019-03-18T06:05:57.248Z,4.70
2019-03-18T06:09:21.128Z,4.70
2019-03-18T06:12:44.866Z,4.70
2019-03-18T06:16:08.630Z,4.80
2019-03-18T06:19:32.457Z,4.80
2019-03-18T06:22:56.345Z,4.90
2019-03-18T06:26:20.030Z,5.00
2019-03-18T06:29:44.106Z,5.10
2019-03-18T06:33:07.893Z,5.20
2019-03-18T06:36:31.727Z,5.30
2019-03-18T06:39:55.601Z,5.30
2019-03-18T06:43:19.536Z,5.40
2019-03-18T06:46:43.333Z,5.40
2019-03-18T06:50:11.110Z,5.50
2019-03-18T06:53:34.888Z,5.40
2019-03-18T06:56:58.637Z,5.60
2019-03-18T07:00:22.524Z,5.50
2019-03-18T07:03:46.291Z,5.60
2019-03-18T07:07:10.149Z,5.70
2019-03-18T07:10:33.921Z,5.70
2019-03-18T07:13:57.696Z,5.70
2019-03-18T07:17:21.411Z,5.90
2019-03-18T07:20:45.154Z,6.00
2019-03-18T07:24:08.893Z,6.20
2019-03-18T07:27:32.748Z,6.30
2019-03-18T07:30:56.598Z,6.50
2019-03-18T07:34:20.375Z,6.60
2019-03-18T07:37:44.355Z,6.70
2019-03-18T07:41:08.571Z,6.80
2019-03-18T07:44:32.353Z,6.80
2019-03-18T07:47:56.243Z,6.80
2019-03-18T07:51:20.191Z,7.10
2019-03-18T07:54:43.948Z,7.20
2019-03-18T07:58:07.664Z,7.20
2019-03-18T08:01:31.483Z,7.30
2019-03-18T08:04:55.439Z,7.50
2019-03-18T08:08:19.349Z,7.40
2019-03-18T08:11:43.266Z,7.30
2019-03-18T08:15:09.123Z,7.20
2019-03-18T08:18:42.718Z,7.10
2019-03-18T08:21:58.385Z,7.30
2019-03-18T08:25:22.260Z,7.60
2019-03-18T08:28:46.156Z,8.30
2019-03-18T08:32:11.791Z,8.60
2019-03-18T08:35:35.581Z,8.80
2019-03-18T08:38:59.361Z,9.00
2019-03-18T08:42:23.333Z,9.80
2019-03-18T08:45:47.096Z,10.60
2019-03-18T08:49:11.115Z,11.30
2019-03-18T08:52:34.863Z,10.70
2019-03-18T08:55:58.619Z,10.20
2019-03-18T08:59:22.389Z,9.80
2019-03-18T09:02:46.080Z,9.10
2019-03-18T09:06:09.894Z,8.70
2019-03-18T09:09:33.785Z,8.20
2019-03-18T09:12:57.659Z,8.00
2019-03-18T09:16:21.532Z,8.20
2019-03-18T09:19:45.413Z,8.00
2019-03-18T09:23:09.583Z,8.00
2019-03-18T09:26:33.448Z,7.90
2019-03-18T09:29:57.326Z,8.00
2019-03-18T09:33:21.081Z,7.90
2019-03-18T09:36:44.997Z,8.00
2019-03-18T09:40:15.466Z,8.20
2019-03-18T09:43:39.243Z,8.40
2019-03-18T09:47:03.044Z,8.40
2019-03-18T09:50:26.901Z,8.60
2019-03-18T09:53:50.648Z,8.70
2019-03-18T09:57:25.415Z,8.70
2019-03-18T10:00:39.979Z,8.60
2019-03-18T10:04:03.779Z,8.20
2019-03-18T10:07:27.566Z,8.30
2019-03-18T10:10:51.335Z,8.50
2019-03-18T10:14:15.096Z,8.70
2019-03-18T10:17:38.932Z,8.40
2019-03-18T10:21:02.862Z,8.50
2019-03-18T10:24:26.833Z,9.00
2019-03-18T10:27:50.473Z,9.10
2019-03-18T10:31:14.318Z,9.20
2019-03-18T10:34:38.134Z,8.60
2019-03-18T10:38:02.053Z,8.50
2019-03-18T10:41:25.941Z,8.50
2019-03-18T10:44:50.096Z,8.70
2019-03-18T10:48:13.825Z,8.50
2019-03-18T10:51:37.683Z,8.50
2019-03-18T10:55:01.437Z,8.60
2019-03-18T10:58:25.199Z,8.40
2019-03-18T11:01:50.413Z,8.70
2019-03-18T11:05:14.998Z,8.90
2019-03-18T11:08:38.835Z,9.60
2019-03-18T11:12:02.712Z,9.90
2019-03-18T11:15:26.597Z,10.40
2019-03-18T11:18:50.476Z,10.60
2019-03-18T11:22:14.173Z,10.00
2019-03-18T11:25:38.032Z,9.70
2019-03-18T11:29:01.798Z,8.90
2019-03-18T11:32:25.588Z,9.30
2019-03-18T11:35:50.150Z,9.30
2019-03-18T11:39:15.090Z,8.50
2019-03-18T11:42:38.710Z,7.80
2019-03-18T11:46:02.566Z,7.30
2019-03-18T11:49:38.564Z,6.80
2019-03-18T11:52:51.788Z,6.50
2019-03-18T11:56:15.558Z,6.50
2019-03-18T11:59:39.371Z,6.70
2019-03-18T12:03:03.156Z,7.10
2019-03-18T12:06:27.010Z,7.70
2019-03-18T12:09:50.873Z,8.00
2019-03-18T12:13:14.713Z,7.80
2019-03-18T12:16:38.450Z,7.80
2019-03-18T12:20:02.227Z,8.10
2019-03-18T12:23:25.888Z,8.30
2019-03-18T12:26:49.779Z,8.70
2019-03-18T12:30:22.505Z,8.50
2019-03-18T12:33:46.362Z,8.40
2019-03-18T12:37:12.236Z,8.00
2019-03-18T12:40:36.170Z,8.10
2019-03-18T12:44:00.171Z,8.20
2019-03-18T12:47:24.028Z,8.30
2019-03-18T12:50:55.612Z,8.50
2019-03-18T12:54:13.438Z,8.80
2019-03-18T12:57:37.296Z,8.90
2019-03-18T13:01:12.124Z,9.20
2019-03-18T13:04:26.709Z,9.90
2019-03-18T13:07:50.476Z,10.40
2019-03-18T13:11:14.328Z,10.70
2019-03-18T13:14:38.286Z,11.00
2019-03-18T13:18:02.077Z,11.10
2019-03-18T13:21:25.903Z,11.80
2019-03-18T13:24:49.616Z,12.00
2019-03-18T13:28:13.704Z,12.20
2019-03-18T13:31:37.582Z,12.10
2019-03-18T13:35:01.425Z,12.00
2019-03-18T13:38:25.465Z,11.80
2019-03-18T13:41:49.129Z,11.70
2019-03-18T13:45:15.255Z,11.20
2019-03-18T13:48:39.547Z,10.50
2019-03-18T13:52:03.299Z,10.40
2019-03-18T13:55:27.064Z,10.70
2019-03-18T13:58:51.015Z,10.70
2019-03-18T14:02:14.825Z,10.80
2019-03-18T14:05:38.749Z,10.40
2019-03-18T14:09:02.606Z,9.90
2019-03-18T14:12:26.375Z,9.70
2019-03-18T14:15:50.288Z,9.50
2019-03-18T14:19:14.171Z,9.70
2019-03-18T14:22:37.904Z,9.70
2019-03-18T14:26:01.655Z,9.40
2019-03-18T14:29:25.521Z,9.20
2019-03-18T14:32:49.305Z,9.40
2019-03-18T14:36:13.483Z,9.50
2019-03-18T14:39:37.248Z,9.30
2019-03-18T14:43:01.126Z,9.20
2019-03-18T14:46:25.072Z,9.10
2019-03-18T14:49:48.901Z,8.90
2019-03-18T14:53:14.382Z,8.70
2019-03-18T14:56:38.230Z,8.60
2019-03-18T15:00:02.180Z,8.50
2019-03-18T15:03:25.994Z,8.40
2019-03-18T15:06:51.887Z,8.20
2019-03-18T15:10:21.084Z,8.00
2019-03-18T15:13:44.953Z,8.10
2019-03-18T15:17:08.934Z,8.00
2019-03-18T15:20:32.831Z,8.10
2019-03-18T15:23:56.709Z,8.10
2019-03-18T15:27:20.560Z,7.90
2019-03-18T15:30:44.471Z,8.00
2019-03-18T15:34:08.265Z,8.00
2019-03-18T15:37:32.450Z,8.30
2019-03-18T15:40:56.427Z,8.20
2019-03-18T15:44:20.724Z,8.10
2019-03-18T15:47:44.458Z,8.00
2019-03-18T15:51:08.682Z,8.00
2019-03-18T15:54:34.318Z,8.00
2019-03-18T15:57:58.284Z,7.80
2019-03-18T16:01:22.375Z,7.70
2019-03-18T16:04:46.303Z,7.70
2019-03-18T16:08:10.122Z,7.70
2019-03-18T16:11:34.954Z,7.90
2019-03-18T16:14:59.029Z,7.80
2019-03-18T16:18:22.899Z,7.70
2019-03-18T16:21:47.368Z,7.50
2019-03-18T16:25:12.406Z,7.40
2019-03-18T16:28:36.294Z,7.20
2019-03-18T16:32:10.696Z,7.10
2019-03-18T16:35:25.791Z,7.00
2019-03-18T16:38:49.744Z,6.80
2019-03-18T16:42:13.791Z,6.60
2019-03-18T16:45:37.692Z,6.40
2019-03-18T16:49:01.504Z,6.20
2019-03-18T16:52:35.280Z,6.10
2019-03-18T16:55:50.903Z,5.80
2019-03-18T16:59:14.905Z,5.60
2019-03-18T17:02:38.885Z,5.50
2019-03-18T17:06:02.774Z,5.30
2019-03-18T17:09:26.751Z,5.30
2019-03-18T17:12:50.633Z,5.20
2019-03-18T17:16:14.480Z,5.20
2019-03-18T17:19:38.510Z,5.20
2019-03-18T17:23:02.473Z,5.10
2019-03-18T17:26:26.372Z,5.00
2019-03-18T17:29:50.071Z,5.00
2019-03-18T17:33:15.550Z,4.90
2019-03-18T17:36:39.427Z,4.90
2019-03-18T17:40:05.259Z,4.80
2019-03-18T17:43:29.142Z,4.70
2019-03-18T17:46:53.123Z,4.60
2019-03-18T17:50:25.727Z,4.50
2019-03-18T17:53:49.556Z,4.40
2019-03-18T17:57:13.399Z,4.10
2019-03-18T18:00:44.724Z,4.00
2019-03-18T18:04:08.671Z,3.90
2019-03-18T18:07:32.796Z,3.80
2019-03-18T18:10:56.992Z,3.70
2019-03-18T18:14:20.857Z,3.50
2019-03-18T18:17:44.967Z,3.50
2019-03-18T18:21:08.758Z,3.40
2019-03-18T18:24:32.704Z,3.40
2019-03-18T18:27:56.716Z,3.40
2019-03-18T18:31:20.508Z,3.20
2019-03-18T18:34:44.551Z,3.20
2019-03-18T18:38:08.438Z,3.10
2019-03-18T18:41:32.510Z,2.90
2019-03-18T18:44:56.403Z,2.80
2019-03-18T18:48:20.138Z,2.80
2019-03-18T18:51:44.039Z,2.70
2019-03-18T18:55:10.397Z,2.60
2019-03-18T18:58:34.485Z,2.50
2019-03-18T19:01:58.571Z,2.50
2019-03-18T19:05:22.464Z,2.60
2019-03-18T19:08:46.855Z,2.70
2019-03-18T19:12:10.589Z,2.70
2019-03-18T19:15:40.143Z,2.50
2019-03-18T19:19:04.004Z,2.40
2019-03-18T19:22:28.113Z,2.30
2019-03-18T19:25:51.979Z,2.40
2019-03-18T19:29:15.971Z,2.30
2019-03-18T19:32:40.505Z,2.30
2019-03-18T19:36:05.793Z,2.40
2019-03-18T19:39:29.864Z,2.40
2019-03-18T19:42:53.837Z,2.50
2019-03-18T19:46:17.935Z,2.50
2019-03-18T19:49:41.698Z,2.40
2019-03-18T19:53:05.546Z,2.40
2019-03-18T19:56:29.324Z,2.40
2019-03-18T19:59:53.345Z,2.50
2019-03-18T20:03:17.298Z,2.60
2019-03-18T20:06:41.235Z,2.50
2019-03-18T20:10:08.284Z,2.50
2019-03-18T20:13:32.464Z,2.50
2019-03-18T20:16:56.443Z,2.60
2019-03-18T20:20:21.929Z,2.70
2019-03-18T20:23:45.722Z,2.80
2019-03-18T20:27:10.340Z,2.90
2019-03-18T20:30:34.316Z,2.90
2019-03-18T20:33:59.281Z,2.90
2019-03-18T20:37:23.317Z,2.90
2019-03-18T20:40:47.265Z,2.90
2019-03-18T20:44:11.171Z,2.80
2019-03-18T20:47:35.230Z,2.80
2019-03-18T20:50:59.338Z,2.80
2019-03-18T20:54:23.259Z,2.90
2019-03-18T20:57:47.163Z,2.90
2019-03-18T21:01:11.098Z,2.90
2019-03-18T21:04:35.075Z,3.00
2019-03-18T21:07:59.266Z,3.10
2019-03-18T21:11:23.105Z,3.20
2019-03-18T21:14:47.128Z,3.30
2019-03-18T21:18:11.223Z,3.40
2019-03-18T21:21:35.078Z,3.40
2019-03-18T21:24:59.078Z,3.40
2019-03-18T21:28:23.102Z,3.30
2019-03-18T21:31:48.355Z,3.20
2019-03-18T21:35:12.348Z,3.10
2019-03-18T21:38:36.240Z,2.90
2019-03-18T21:42:00.219Z,2.80
2019-03-18T21:45:25.005Z,2.70
2019-03-18T21:48:48.995Z,2.60
2019-03-18T21:52:12.891Z,2.50
2019-03-18T21:55:36.947Z,2.40
2019-03-18T21:59:01.963Z,2.30
2019-03-18T22:02:26.030Z,2.30
2019-03-18T22:05:50.103Z,2.20
2019-03-18T22:09:13.850Z,2.10
2019-03-18T22:12:37.811Z,2.00
2019-03-18T22:16:02.024Z,2.00
2019-03-18T22:19:25.879Z,2.00
2019-03-18T22:22:49.691Z,2.00
2019-03-18T22:26:13.563Z,2.10
2019-03-18T22:29:37.288Z,2.10
2019-03-18T22:33:01.396Z,2.30
2019-03-18T22:36:26.401Z,2.30
2019-03-18T22:39:50.176Z,2.40
2019-03-18T22:43:14.598Z,2.40
2019-03-18T22:46:38.663Z,2.50
2019-03-18T22:50:02.488Z,2.40
2019-03-18T22:53:26.414Z,2.30
2019-03-18T22:56:50.178Z,2.30
2019-03-18T23:00:25.961Z,2.30
2019-03-18T23:03:49.927Z,2.30
2019-03-18T23:07:13.824Z,2.20
2019-03-18T23:10:37.691Z,2.00
2019-03-18T23:14:01.564Z,1.90
2019-03-18T23:17:25.447Z,1.80
2019-03-18T23:20:49.311Z,1.60
2019-03-18T23:24:13.168Z,1.50
2019-03-18T23:27:36.983Z,1.40
2019-03-18T23:31:00.697Z,1.40
2019-03-18T23:34:24.843Z,1.30
2019-03-18T23:37:48.736Z,1.20
2019-03-18T23:41:12.511Z,1.00
2019-03-18T23:44:36.569Z,1.10
2019-03-18T23:48:00.315Z,1.00
2019-03-18T23:51:24.233Z,1.00
2019-03-18T23:54:48.253Z,0.90
2019-03-18T23:58:12.126Z,0.70
